createdAt,value
2022-10-22T00:00:17.436Z,15.88
2022-10-22T00:02:44.922Z,15.77
2022-10-22T00:05:12.013Z,15.59
2022-10-22T00:07:39.469Z,15.62
2022-10-22T00:10:07.938Z,15.72
2022-10-22T00:12:35.422Z,15.90
2022-10-22T00:15:03.759Z,15.67
2022-10-22T00:17:30.795Z,15.93
2022-10-22T00:19:57.985Z,16.15
2022-10-22T00:22:24.899Z,16.39
2022-10-22T00:24:51.925Z,16.11
2022-10-22T00:27:18.859Z,16.37
2022-10-22T00:29:45.990Z,15.61
2022-10-22T00:32:13.400Z,16.01
2022-10-22T00:34:40.409Z,16.03
2022-10-22T00:37:07.761Z,15.90
2022-10-22T00:39:34.742Z,15.43
2022-10-22T00:42:01.752Z,15.56
2022-10-22T00:45:09.453Z,16.04
2022-10-22T00:48:04.768Z,15.83
2022-10-22T00:50:59.751Z,16.18
2022-10-22T00:53:34.885Z,15.50
2022-10-22T00:56:02.382Z,15.85
2022-10-22T00:58:34.915Z,15.87
2022-10-22T01:01:02.567Z,15.96
2022-10-22T01:03:29.578Z,16.32
2022-10-22T01:06:00.242Z,15.73
2022-10-22T01:08:39.808Z,15.64
2022-10-22T01:11:29.920Z,16.12
2022-10-22T01:14:24.527Z,15.84
2022-10-22T01:17:25.092Z,15.70
2022-10-22T01:20:55.034Z,16.06
2022-10-22T01:24:05.775Z,15.35
2022-10-22T01:26:57.655Z,15.55
2022-10-22T01:29:41.216Z,15.84
2022-10-22T01:32:23.983Z,15.89
2022-10-22T01:34:56.371Z,15.48
2022-10-22T01:37:28.436Z,15.24
2022-10-22T01:39:59.717Z,15.54
2022-10-22T01:42:26.715Z,15.36
2022-10-22T01:44:53.789Z,15.88
2022-10-22T01:48:18.776Z,15.87
2022-10-22T01:51:13.177Z,15.60
2022-10-22T01:54:03.241Z,15.32
2022-10-22T01:56:41.135Z,14.98
2022-10-22T02:00:00.027Z,15.51
2022-10-22T02:03:10.131Z,15.97
2022-10-22T02:05:51.874Z,15.70
2022-10-22T02:08:29.465Z,15.89
2022-10-22T02:10:58.614Z,15.57
2022-10-22T02:13:53.846Z,15.93
2022-10-22T02:16:44.120Z,15.61
2022-10-22T02:19:16.004Z,15.11
2022-10-22T02:21:44.112Z,15.55
2022-10-22T02:24:11.251Z,15.28
2022-10-22T02:26:46.246Z,15.57
2022-10-22T02:29:28.010Z,15.26
2022-10-22T02:31:58.903Z,15.44
2022-10-22T02:34:31.274Z,15.83
2022-10-22T02:37:02.130Z,16.10
2022-10-22T02:39:31.358Z,15.26
2022-10-22T02:41:58.808Z,15.41
2022-10-22T02:44:25.726Z,15.84
2022-10-22T02:46:53.053Z,15.56
2022-10-22T02:49:20.197Z,15.38
2022-10-22T02:51:47.174Z,15.22
2022-10-22T02:54:14.829Z,15.62
2022-10-22T02:56:41.938Z,15.73
2022-10-22T02:59:09.196Z,15.65
2022-10-22T03:01:36.167Z,15.92
2022-10-22T03:04:03.659Z,15.77
2022-10-22T03:06:31.467Z,16.12
2022-10-22T03:08:58.513Z,16.49
2022-10-22T03:11:25.644Z,16.35
2022-10-22T03:13:52.880Z,16.33
2022-10-22T03:16:19.844Z,15.82
2022-10-22T03:18:47.110Z,15.28
2022-10-22T03:21:42.786Z,15.61
2022-10-22T03:24:20.118Z,15.75
2022-10-22T03:26:49.403Z,15.79
2022-10-22T03:29:17.090Z,15.71
2022-10-22T03:31:44.080Z,15.56
2022-10-22T03:34:13.402Z,15.61
2022-10-22T03:36:41.635Z,15.66
2022-10-22T03:39:09.616Z,15.85
2022-10-22T03:41:37.003Z,15.41
2022-10-22T03:44:05.522Z,14.79
2022-10-22T03:46:32.587Z,14.89
2022-10-22T03:48:59.912Z,15.70
2022-10-22T03:51:28.169Z,15.31
2022-10-22T03:53:55.874Z,15.22
2022-10-22T03:56:23.228Z,15.62
2022-10-22T03:58:50.240Z,15.36
2022-10-22T04:01:17.454Z,15.25
2022-10-22T04:03:44.567Z,15.52
2022-10-22T04:06:13.503Z,15.27
2022-10-22T04:08:43.091Z,15.15
2022-10-22T04:11:11.598Z,15.36
2022-10-22T04:13:39.252Z,15.07
2022-10-22T04:16:11.054Z,15.01
2022-10-22T04:18:38.750Z,14.68
2022-10-22T04:21:07.527Z,15.16
2022-10-22T04:23:34.682Z,14.79
2022-10-22T04:26:05.807Z,14.53
2022-10-22T04:28:34.849Z,14.71
2022-10-22T04:31:09.590Z,15.28
2022-10-22T04:33:36.884Z,15.17
2022-10-22T04:36:16.723Z,15.31
2022-10-22T04:38:46.890Z,15.25
2022-10-22T04:41:25.576Z,15.42
2022-10-22T04:43:54.791Z,15.32
2022-10-22T04:46:22.913Z,14.63
2022-10-22T04:48:52.185Z,15.01
2022-10-22T04:51:21.592Z,15.07
2022-10-22T04:53:49.154Z,14.91
2022-10-22T04:56:26.710Z,15.08
2022-10-22T04:59:04.197Z,15.14
2022-10-22T05:01:40.170Z,15.18
2022-10-22T05:04:23.582Z,14.84
2022-10-22T05:06:50.891Z,14.96
2022-10-22T05:09:20.563Z,15.24
2022-10-22T05:11:50.352Z,15.23
2022-10-22T05:14:22.380Z,15.12
2022-10-22T05:16:51.312Z,14.94
2022-10-22T05:19:24.130Z,15.06
2022-10-22T05:21:53.964Z,15.16
2022-10-22T05:24:21.598Z,15.03
2022-10-22T05:26:53.682Z,15.25
2022-10-22T05:29:21.881Z,14.96
2022-10-22T05:31:49.550Z,15.19
2022-10-22T05:34:17.079Z,14.81
2022-10-22T05:36:44.492Z,14.84
2022-10-22T05:39:12.180Z,14.90
2022-10-22T05:41:39.193Z,14.54
2022-10-22T05:44:06.392Z,14.89
2022-10-22T05:46:36.429Z,15.20
2022-10-22T05:49:06.777Z,15.16
2022-10-22T05:51:36.887Z,15.14
2022-10-22T05:54:07.992Z,15.29
2022-10-22T05:56:37.585Z,15.06
2022-10-22T05:59:04.808Z,15.37
2022-10-22T06:01:35.627Z,15.55
2022-10-22T06:04:06.570Z,15.44
2022-10-22T06:06:40.854Z,15.24
2022-10-22T06:09:34.500Z,14.63
2022-10-22T06:12:01.960Z,14.78
2022-10-22T06:14:29.395Z,14.67
2022-10-22T06:16:59.513Z,14.63
2022-10-22T06:19:27.135Z,14.69
2022-10-22T06:21:54.349Z,15.02
2022-10-22T06:24:21.685Z,15.47
2022-10-22T06:26:52.698Z,15.31
2022-10-22T06:29:19.848Z,15.02
2022-10-22T06:31:47.976Z,14.76
2022-10-22T06:34:18.808Z,14.78
2022-10-22T06:36:46.841Z,14.69
2022-10-22T06:39:17.010Z,14.84
2022-10-22T06:41:44.187Z,14.46
2022-10-22T06:44:16.053Z,14.66
2022-10-22T06:46:43.654Z,14.56
2022-10-22T06:49:17.131Z,14.34
2022-10-22T06:51:44.888Z,14.63
2022-10-22T06:54:12.467Z,14.80
2022-10-22T06:56:39.453Z,14.85
2022-10-22T06:59:06.704Z,15.35
2022-10-22T07:01:35.434Z,14.58
2022-10-22T07:04:03.869Z,14.83
2022-10-22T07:06:31.682Z,14.88
2022-10-22T07:09:00.529Z,14.57
2022-10-22T07:11:42.105Z,15.12
2022-10-22T07:14:09.973Z,14.66
2022-10-22T07:16:38.020Z,14.57
2022-10-22T07:19:05.837Z,14.46
2022-10-22T07:21:33.112Z,14.97
2022-10-22T07:24:00.266Z,15.10
2022-10-22T07:26:30.883Z,14.87
2022-10-22T07:29:00.425Z,14.86
2022-10-22T07:31:28.321Z,15.40
2022-10-22T07:33:55.601Z,15.58
2022-10-22T07:36:22.543Z,15.50
2022-10-22T07:38:56.829Z,16.19
2022-10-22T07:41:24.817Z,15.88
2022-10-22T07:43:51.925Z,16.23
2022-10-22T07:46:20.462Z,16.46
2022-10-22T07:48:47.724Z,16.80
2022-10-22T07:51:15.794Z,16.43
2022-10-22T07:53:43.330Z,16.42
2022-10-22T07:56:10.801Z,16.45
2022-10-22T07:58:38.079Z,16.72
2022-10-22T08:01:08.125Z,17.30
2022-10-22T08:03:35.670Z,17.27
2022-10-22T08:06:03.667Z,17.54
2022-10-22T08:08:30.954Z,17.71
2022-10-22T08:11:00.690Z,17.67
2022-10-22T08:13:30.738Z,17.33
2022-10-22T08:16:00.368Z,17.77
2022-10-22T08:18:28.551Z,18.14
2022-10-22T08:20:56.168Z,17.90
2022-10-22T08:23:26.087Z,17.69
2022-10-22T08:25:57.240Z,17.80
2022-10-22T08:28:24.541Z,18.54
2022-10-22T08:30:51.674Z,18.70
2022-10-22T08:33:18.624Z,18.61
2022-10-22T08:35:52.626Z,19.02
2022-10-22T08:38:20.526Z,19.14
2022-10-22T08:41:14.623Z,18.82
2022-10-22T08:44:02.605Z,19.10
2022-10-22T08:46:35.171Z,19.41
2022-10-22T08:51:41.390Z,19.23
2022-10-22T08:54:47.306Z,19.69
2022-10-22T08:57:39.543Z,19.28
2022-10-22T09:00:31.181Z,19.01
2022-10-22T09:03:09.751Z,18.96
2022-10-22T09:05:55.796Z,19.47
2022-10-22T09:08:23.846Z,18.99
2022-10-22T09:11:13.395Z,18.76
2022-10-22T09:13:43.313Z,19.07
2022-10-22T09:16:36.254Z,19.90
2022-10-22T09:19:06.310Z,19.59
2022-10-22T09:21:54.398Z,19.05
2022-10-22T09:24:39.311Z,19.01
2022-10-22T09:27:21.112Z,19.31
2022-10-22T09:29:48.794Z,19.40
2022-10-22T09:32:17.426Z,19.34
2022-10-22T09:34:46.702Z,19.94
2022-10-22T09:37:19.286Z,20.27
2022-10-22T09:39:52.966Z,20.74
2022-10-22T09:42:22.170Z,20.67
2022-10-22T09:44:55.334Z,21.03
2022-10-22T09:48:00.636Z,20.61
2022-10-22T09:50:45.967Z,21.08
2022-10-22T09:53:28.781Z,21.26
2022-10-22T09:56:00.494Z,21.30
2022-10-22T09:58:28.163Z,20.45
2022-10-22T10:01:00.526Z,20.35
2022-10-22T10:03:31.513Z,20.99
2022-10-22T10:06:04.757Z,21.24
2022-10-22T10:08:33.893Z,20.84
2022-10-22T10:11:29.240Z,20.81
2022-10-22T10:14:34.416Z,20.23
2022-10-22T10:18:10.565Z,21.24
2022-10-22T10:20:54.863Z,21.20
2022-10-22T10:23:55.035Z,20.64
2022-10-22T10:26:54.920Z,21.18
2022-10-22T10:29:48.843Z,21.30
2022-10-22T10:32:51.015Z,20.96
2022-10-22T10:36:03.412Z,21.35
2022-10-22T10:38:41.041Z,21.08
2022-10-22T10:41:26.979Z,21.72
2022-10-22T10:44:24.254Z,21.72
2022-10-22T10:47:31.619Z,21.98
2022-10-22T10:50:35.573Z,21.10
2022-10-22T10:53:24.267Z,21.74
2022-10-22T10:56:13.613Z,21.85
2022-10-22T10:59:17.183Z,21.67
2022-10-22T11:02:27.866Z,21.80
2022-10-22T11:05:28.147Z,21.96
2022-10-22T11:08:17.355Z,21.90
2022-10-22T11:10:50.367Z,21.79
2022-10-22T11:13:31.563Z,21.41
2022-10-22T11:16:15.074Z,22.41
2022-10-22T11:19:22.531Z,21.73
2022-10-22T11:22:26.776Z,22.23
2022-10-22T11:25:13.248Z,22.75
2022-10-22T11:27:53.610Z,22.64
2022-10-22T11:30:28.613Z,22.51
2022-10-22T11:33:01.786Z,22.50
2022-10-22T11:35:34.924Z,22.52
2022-10-22T11:38:05.460Z,22.21
2022-10-22T11:40:39.486Z,22.69
2022-10-22T11:43:25.766Z,22.87
2022-10-22T11:46:23.229Z,22.82
2022-10-22T11:49:19.603Z,22.53
2022-10-22T11:51:47.640Z,22.57
2022-10-22T11:54:44.410Z,22.80
2022-10-22T11:57:19.633Z,22.80
2022-10-22T12:00:01.399Z,22.47
2022-10-22T12:02:28.280Z,22.56
2022-10-22T12:05:23.335Z,22.76
2022-10-22T12:07:55.066Z,23.15
2022-10-22T12:10:29.426Z,22.98
2022-10-22T12:13:11.059Z,22.97
2022-10-22T12:15:53.294Z,22.85
2022-10-22T12:18:27.686Z,22.88
2022-10-22T12:20:55.269Z,23.05
2022-10-22T12:23:31.695Z,23.65
2022-10-22T12:25:58.730Z,22.93
2022-10-22T12:28:26.027Z,23.52
2022-10-22T12:30:52.977Z,22.63
2022-10-22T12:33:23.286Z,22.60
2022-10-22T12:35:54.068Z,23.06
2022-10-22T12:38:24.372Z,23.31
2022-10-22T12:40:55.038Z,23.42
2022-10-22T12:43:30.075Z,23.50
2022-10-22T12:45:59.112Z,23.52
2022-10-22T12:48:34.462Z,23.74
2022-10-22T12:51:04.725Z,23.27
2022-10-22T12:53:44.266Z,23.48
2022-10-22T12:56:16.180Z,23.91
2022-10-22T12:59:06.867Z,23.39
2022-10-22T13:01:40.010Z,23.67
2022-10-22T13:04:16.897Z,23.51
2022-10-22T13:06:50.173Z,23.57
2022-10-22T13:09:27.477Z,23.65
2022-10-22T13:12:04.895Z,23.57
2022-10-22T13:14:38.237Z,23.30
2022-10-22T13:17:39.052Z,23.67
2022-10-22T13:20:26.546Z,23.36
2022-10-22T13:23:00.544Z,23.66
2022-10-22T13:25:34.902Z,24.16
2022-10-22T13:28:25.229Z,23.95
2022-10-22T13:31:19.926Z,23.98
2022-10-22T13:33:55.071Z,23.97
2022-10-22T13:36:23.634Z,23.78
2022-10-22T13:38:51.321Z,23.89
2022-10-22T13:41:27.287Z,23.96
2022-10-22T13:43:55.229Z,24.10
2022-10-22T13:46:24.242Z,24.21
2022-10-22T13:48:55.276Z,24.22
2022-10-22T13:51:27.867Z,24.06
2022-10-22T13:53:54.874Z,24.22
2022-10-22T13:56:22.721Z,24.66
2022-10-22T13:58:49.830Z,24.29
2022-10-22T14:01:26.969Z,24.17
2022-10-22T14:04:01.941Z,24.30
2022-10-22T14:06:32.071Z,23.96
2022-10-22T14:09:06.313Z,24.01
2022-10-22T14:11:35.400Z,24.14
2022-10-22T14:14:04.970Z,24.21
2022-10-22T14:16:33.302Z,24.29
2022-10-22T14:19:02.475Z,24.01
2022-10-22T14:21:37.537Z,24.15
2022-10-22T14:24:07.090Z,24.27
2022-10-22T14:26:36.639Z,24.00
2022-10-22T14:29:09.301Z,24.43
2022-10-22T14:31:43.410Z,24.66
2022-10-22T14:34:13.855Z,24.70
2022-10-22T14:36:43.746Z,24.32
2022-10-22T14:39:11.919Z,24.44
2022-10-22T14:41:39.524Z,24.65
2022-10-22T14:44:06.549Z,24.51
2022-10-22T14:46:33.995Z,24.27
2022-10-22T14:49:00.958Z,24.71
2022-10-22T14:51:28.187Z,24.82
2022-10-22T14:53:55.155Z,24.94
2022-10-22T14:56:22.136Z,24.56
2022-10-22T14:58:50.533Z,24.89
2022-10-22T15:01:17.800Z,24.98
2022-10-22T15:03:45.057Z,24.89
2022-10-22T15:06:12.094Z,24.76
2022-10-22T15:08:39.654Z,24.15
2022-10-22T15:11:11.308Z,23.60
2022-10-22T15:13:39.291Z,23.47
2022-10-22T15:16:08.672Z,23.58
2022-10-22T15:18:36.468Z,23.19
2022-10-22T15:21:16.926Z,23.08
2022-10-22T15:23:43.941Z,23.13
2022-10-22T15:26:13.328Z,23.20
2022-10-22T15:28:41.729Z,22.97
2022-10-22T15:31:13.386Z,22.89
2022-10-22T15:33:42.746Z,23.00
2022-10-22T15:36:16.147Z,22.96
2022-10-22T15:38:43.200Z,23.00
2022-10-22T15:41:12.782Z,22.94
2022-10-22T15:43:39.744Z,23.25
2022-10-22T15:46:17.482Z,23.32
2022-10-22T15:48:45.721Z,23.70
2022-10-22T15:51:16.670Z,23.80
2022-10-22T15:53:44.391Z,23.57
2022-10-22T15:56:12.089Z,23.46
2022-10-22T15:58:39.875Z,23.20
2022-10-22T16:01:11.702Z,22.30
2022-10-22T16:03:40.133Z,22.55
2022-10-22T16:06:09.397Z,22.18
2022-10-22T16:08:37.735Z,21.98
2022-10-22T16:11:05.583Z,21.33
2022-10-22T16:13:32.627Z,21.05
2022-10-22T16:16:04.168Z,21.62
2022-10-22T16:18:31.447Z,21.32
2022-10-22T16:20:59.109Z,21.18
2022-10-22T16:23:26.133Z,20.99
2022-10-22T16:25:53.198Z,20.85
2022-10-22T16:28:20.463Z,21.02
2022-10-22T16:30:47.438Z,19.95
2022-10-22T16:33:14.611Z,19.42
2022-10-22T16:35:42.739Z,20.56
2022-10-22T16:38:11.212Z,20.15
2022-10-22T16:40:38.477Z,19.98
2022-10-22T16:43:06.255Z,19.59
2022-10-22T16:45:33.336Z,19.69
2022-10-22T16:48:00.781Z,19.60
2022-10-22T16:50:27.980Z,19.68
2022-10-22T16:52:55.043Z,19.31
2022-10-22T16:55:22.236Z,19.50
2022-10-22T16:57:53.716Z,19.41
2022-10-22T17:00:21.610Z,19.39
2022-10-22T17:02:55.463Z,19.22
2022-10-22T17:05:23.494Z,18.86
2022-10-22T17:07:50.961Z,18.75
2022-10-22T17:12:54.281Z,18.86
2022-10-22T17:15:21.246Z,18.51
2022-10-22T17:17:52.489Z,18.55
2022-10-22T17:20:20.263Z,18.44
2022-10-22T17:22:49.592Z,17.70
2022-10-22T17:25:32.648Z,17.96
2022-10-22T17:27:59.783Z,17.98
2022-10-22T17:30:28.368Z,18.28
2022-10-22T17:32:55.741Z,18.18
2022-10-22T17:35:22.963Z,18.39
2022-10-22T17:37:50.052Z,18.31
2022-10-22T17:40:17.038Z,18.35
2022-10-22T17:42:45.634Z,17.55
2022-10-22T17:45:12.597Z,17.26
2022-10-22T17:47:40.095Z,17.54
2022-10-22T17:50:08.183Z,18.14
2022-10-22T17:52:35.801Z,18.16
2022-10-22T17:55:03.560Z,18.41
2022-10-22T17:57:30.598Z,17.31
2022-10-22T17:59:57.645Z,17.95
2022-10-22T18:02:24.833Z,17.99
2022-10-22T18:04:52.599Z,17.95
2022-10-22T18:07:20.781Z,17.93
2022-10-22T18:09:48.150Z,17.75
2022-10-22T18:12:18.070Z,17.59
2022-10-22T18:14:46.986Z,17.52
2022-10-22T18:19:47.727Z,17.95
2022-10-22T18:22:14.815Z,17.52
2022-10-22T18:24:41.802Z,17.81
2022-10-22T18:27:08.997Z,17.88
2022-10-22T18:29:36.935Z,17.32
2022-10-22T18:32:09.416Z,17.26
2022-10-22T18:34:39.297Z,17.45
2022-10-22T18:37:06.475Z,17.12
2022-10-22T18:39:34.381Z,16.50
2022-10-22T18:42:06.364Z,17.15
2022-10-22T18:44:34.842Z,16.59
2022-10-22T18:47:02.234Z,16.41
2022-10-22T18:49:29.254Z,16.25
2022-10-22T18:51:56.199Z,15.96
2022-10-22T18:54:24.367Z,16.34
2022-10-22T18:56:53.330Z,16.16
2022-10-22T18:59:26.292Z,16.26
2022-10-22T19:01:55.438Z,16.41
2022-10-22T19:04:22.647Z,16.62
2022-10-22T19:06:50.146Z,16.46
2022-10-22T19:09:17.527Z,16.39
2022-10-22T19:11:45.675Z,16.22
2022-10-22T19:14:14.789Z,16.63
2022-10-22T19:16:41.928Z,16.83
2022-10-22T19:19:09.051Z,16.30
2022-10-22T19:21:38.117Z,16.60
2022-10-22T19:24:06.016Z,16.59
2022-10-22T19:26:33.074Z,16.10
2022-10-22T19:29:01.031Z,16.65
2022-10-22T19:31:32.445Z,16.51
2022-10-22T19:34:02.024Z,17.04
2022-10-22T19:36:32.473Z,16.57
2022-10-22T19:38:59.941Z,16.19
2022-10-22T19:41:29.246Z,16.01
2022-10-22T19:43:57.994Z,16.39
2022-10-22T19:46:26.947Z,15.96
2022-10-22T19:48:57.033Z,16.07
2022-10-22T19:51:29.686Z,16.09
2022-10-22T19:54:06.047Z,16.23
2022-10-22T19:56:35.835Z,16.02
2022-10-22T19:59:04.702Z,15.90
2022-10-22T20:01:32.008Z,16.84
2022-10-22T20:04:00.249Z,16.13
2022-10-22T20:06:27.554Z,16.32
2022-10-22T20:08:56.187Z,16.72
2022-10-22T20:11:28.304Z,16.22
2022-10-22T20:13:57.049Z,16.11
2022-10-22T20:16:28.530Z,15.98
2022-10-22T20:19:00.455Z,15.57
2022-10-22T20:21:27.499Z,15.64
2022-10-22T20:23:56.381Z,15.64
2022-10-22T20:26:24.575Z,15.54
2022-10-22T20:28:52.282Z,15.86
2022-10-22T20:31:21.757Z,15.99
2022-10-22T20:33:50.946Z,15.49
2022-10-22T20:36:21.855Z,15.35
2022-10-22T20:38:50.862Z,15.65
2022-10-22T20:41:21.573Z,15.15
2022-10-22T20:43:51.056Z,15.55
2022-10-22T20:46:24.619Z,15.43
2022-10-22T20:48:54.752Z,15.65
2022-10-22T20:51:22.334Z,15.62
2022-10-22T20:53:50.333Z,15.34
2022-10-22T20:56:18.187Z,15.64
2022-10-22T20:58:49.107Z,15.19
2022-10-22T21:01:24.428Z,14.65
2022-10-22T21:03:52.801Z,15.19
2022-10-22T21:06:23.007Z,15.99
2022-10-22T21:08:51.299Z,14.86
2022-10-22T21:11:19.609Z,14.96
2022-10-22T21:13:47.285Z,15.33
2022-10-22T21:16:17.607Z,15.33
2022-10-22T21:18:46.455Z,16.07
2022-10-22T21:21:14.303Z,15.97
2022-10-22T21:23:41.349Z,16.10
2022-10-22T21:26:08.697Z,15.46
2022-10-22T21:28:36.878Z,15.46
2022-10-22T21:31:07.364Z,14.70
2022-10-22T21:33:39.289Z,14.96
2022-10-22T21:36:09.226Z,15.11
2022-10-22T21:38:37.752Z,14.98
2022-10-22T21:41:07.535Z,15.31
2022-10-22T21:43:36.881Z,15.01
2022-10-22T21:46:16.463Z,15.26
2022-10-22T21:48:44.219Z,15.17
2022-10-22T21:51:15.982Z,14.77
2022-10-22T21:53:43.798Z,14.37
2022-10-22T21:56:21.011Z,14.82
2022-10-22T21:58:48.514Z,14.62
2022-10-22T22:01:16.874Z,14.13
2022-10-22T22:03:49.163Z,13.88
2022-10-22T22:06:21.244Z,14.81
2022-10-22T22:08:51.304Z,14.60
2022-10-22T22:11:25.027Z,14.69
2022-10-22T22:13:53.685Z,14.96
2022-10-22T22:16:27.286Z,14.66
2022-10-22T22:19:01.653Z,13.52
2022-10-22T22:21:29.734Z,14.70
2022-10-22T22:23:58.215Z,14.92
2022-10-22T22:26:29.916Z,13.92
2022-10-22T22:28:59.417Z,14.61
2022-10-22T22:31:31.111Z,13.52
2022-10-22T22:34:08.219Z,13.99
2022-10-22T22:36:42.011Z,13.71
2022-10-22T22:39:13.903Z,14.25
2022-10-22T22:41:42.439Z,14.16
2022-10-22T22:44:09.930Z,14.28
2022-10-22T22:46:37.416Z,13.83
2022-10-22T22:49:05.450Z,14.11
2022-10-22T22:51:33.260Z,14.44
2022-10-22T22:54:01.128Z,14.20
2022-10-22T22:56:31.732Z,14.81
2022-10-22T22:58:59.186Z,14.52
2022-10-22T23:01:33.871Z,13.93
2022-10-22T23:04:19.377Z,13.85
2022-10-22T23:06:46.632Z,14.40
2022-10-22T23:09:16.619Z,14.36
2022-10-22T23:11:45.498Z,13.75
2022-10-22T23:14:15.942Z,14.10
2022-10-22T23:16:47.653Z,14.10
2022-10-22T23:19:18.950Z,13.82
2022-10-22T23:21:53.786Z,14.36
2022-10-22T23:24:25.266Z,14.24
2022-10-22T23:26:54.733Z,14.16
2022-10-22T23:29:27.962Z,14.12
2022-10-22T23:31:58.533Z,14.34
2022-10-22T23:34:26.046Z,14.44
2022-10-22T23:36:54.531Z,14.31
2022-10-22T23:39:27.005Z,14.78
2022-10-22T23:41:54.579Z,14.77
2022-10-22T23:44:23.240Z,14.83
2022-10-22T23:46:51.089Z,15.00
2022-10-22T23:49:18.569Z,14.19
2022-10-22T23:51:45.775Z,14.82
2022-10-22T23:54:15.680Z,14.40
2022-10-22T23:56:42.686Z,14.12
2022-10-22T23:59:10.238Z,14.75
